Terminal Aerodrome Forecast
Issued by NWS Jacksonville, FL

Home | Current Version | Previous Version | Text Only | Print | Product List | Glossary On
Versions: 1 2 3 4 5 6 7 8 9 10 11 12 13 14 15 16 17 18 19
000
FTUS42 KJAX 291604 AAB
TAFJAX
TAF AMD
KJAX 291604Z 2916/3012 VRB04KT P6SM BKN250
     FM291800 17006KT P6SM FEW050 BKN250
     FM300000 21003KT P6SM BKN250
     FM301000 24005KT P6SM BKN100 OVC250=

USA.gov is the U.S. government's official web portal to all federal, state and local government web resources and services.